sensor_id;sensor_type;location;lat;lon;timestamp;temperature;humidity
4107;DHT22;21906;50.812;7.132;2023-01-20T00:01:41;4.90;69.50
4107;DHT22;21906;50.812;7.132;2023-01-20T00:04:16;4.90;69.80
4107;DHT22;21906;50.812;7.132;2023-01-20T00:06:45;4.80;70.00
4107;DHT22;21906;50.812;7.132;2023-01-20T00:09:14;4.80;70.40
4107;DHT22;21906;50.812;7.132;2023-01-20T00:11:41;4.80;70.60
4107;DHT22;21906;50.812;7.132;2023-01-20T00:14:08;4.70;70.70
4107;DHT22;21906;50.812;7.132;2023-01-20T00:16:34;4.70;70.90
4107;DHT22;21906;50.812;7.132;2023-01-20T00:18:59;4.70;70.90
4107;DHT22;21906;50.812;7.132;2023-01-20T00:21:25;4.60;71.10
4107;DHT22;21906;50.812;7.132;2023-01-20T00:23:51;4.60;71.10
4107;DHT22;21906;50.812;7.132;2023-01-20T00:26:18;4.60;71.10
4107;DHT22;21906;50.812;7.132;2023-01-20T00:28:45;4.60;71.20
4107;DHT22;21906;50.812;7.132;2023-01-20T00:31:15;4.60;71.40
4107;DHT22;21906;50.812;7.132;2023-01-20T00:33:42;4.60;71.40
4107;DHT22;21906;50.812;7.132;2023-01-20T00:36:08;4.50;71.60
4107;DHT22;21906;50.812;7.132;2023-01-20T00:38:35;4.50;71.70
4107;DHT22;21906;50.812;7.132;2023-01-20T00:41:00;4.50;71.70
4107;DHT22;21906;50.812;7.132;2023-01-20T00:43:26;4.50;71.90
4107;DHT22;21906;50.812;7.132;2023-01-20T00:45:52;4.50;71.90
4107;DHT22;21906;50.812;7.132;2023-01-20T00:48:17;4.60;71.90
4107;DHT22;21906;50.812;7.132;2023-01-20T00:50:43;4.60;72.00
4107;DHT22;21906;50.812;7.132;2023-01-20T00:53:09;4.60;72.00
4107;DHT22;21906;50.812;7.132;2023-01-20T00:55:34;4.60;72.00
4107;DHT22;21906;50.812;7.132;2023-01-20T00:58:00;4.60;71.90
4107;DHT22;21906;50.812;7.132;2023-01-20T01:00:26;4.60;71.90
4107;DHT22;21906;50.812;7.132;2023-01-20T01:02:51;4.60;71.80
4107;DHT22;21906;50.812;7.132;2023-01-20T01:05:17;4.60;71.80
4107;DHT22;21906;50.812;7.132;2023-01-20T01:07:43;4.50;71.70
4107;DHT22;21906;50.812;7.132;2023-01-20T01:10:09;4.60;71.80
4107;DHT22;21906;50.812;7.132;2023-01-20T01:12:35;4.50;71.90
4107;DHT22;21906;50.812;7.132;2023-01-20T01:15:01;4.50;72.10
4107;DHT22;21906;50.812;7.132;2023-01-20T01:17:26;4.50;72.20
4107;DHT22;21906;50.812;7.132;2023-01-20T01:19:52;4.50;72.30
4107;DHT22;21906;50.812;7.132;2023-01-20T01:22:20;4.40;72.50
4107;DHT22;21906;50.812;7.132;2023-01-20T01:24:46;4.40;72.70
4107;DHT22;21906;50.812;7.132;2023-01-20T01:27:12;4.40;72.70
4107;DHT22;21906;50.812;7.132;2023-01-20T01:29:38;4.40;72.80
4107;DHT22;21906;50.812;7.132;2023-01-20T01:32:04;4.40;72.90
4107;DHT22;21906;50.812;7.132;2023-01-20T01:34:29;4.40;73.00
4107;DHT22;21906;50.812;7.132;2023-01-20T01:36:55;4.40;73.10
4107;DHT22;21906;50.812;7.132;2023-01-20T01:39:22;4.40;73.30
4107;DHT22;21906;50.812;7.132;2023-01-20T01:41:48;4.40;73.30
4107;DHT22;21906;50.812;7.132;2023-01-20T01:44:14;4.40;73.30
4107;DHT22;21906;50.812;7.132;2023-01-20T01:46:40;4.40;73.40
4107;DHT22;21906;50.812;7.132;2023-01-20T01:49:20;4.40;73.50
4107;DHT22;21906;50.812;7.132;2023-01-20T01:51:52;4.40;73.50
4107;DHT22;21906;50.812;7.132;2023-01-20T01:54:22;4.40;73.50
4107;DHT22;21906;50.812;7.132;2023-01-20T01:56:48;4.40;73.40
4107;DHT22;21906;50.812;7.132;2023-01-20T01:59:16;4.40;73.50
4107;DHT22;21906;50.812;7.132;2023-01-20T02:01:47;4.40;73.50
4107;DHT22;21906;50.812;7.132;2023-01-20T02:04:15;4.40;73.40
4107;DHT22;21906;50.812;7.132;2023-01-20T02:06:45;4.40;73.40
4107;DHT22;21906;50.812;7.132;2023-01-20T02:09:13;4.40;73.30
4107;DHT22;21906;50.812;7.132;2023-01-20T02:11:44;4.40;73.20
4107;DHT22;21906;50.812;7.132;2023-01-20T02:14:17;4.40;73.20
4107;DHT22;21906;50.812;7.132;2023-01-20T02:17:13;4.30;73.00
4107;DHT22;21906;50.812;7.132;2023-01-20T02:30:20;4.10;72.50
4107;DHT22;21906;50.812;7.132;2023-01-20T02:32:57;4.00;72.70
4107;DHT22;21906;50.812;7.132;2023-01-20T02:35:33;4.00;72.70
4107;DHT22;21906;50.812;7.132;2023-01-20T02:41:00;4.10;72.80
4107;DHT22;21906;50.812;7.132;2023-01-20T02:43:35;4.10;72.80
4107;DHT22;21906;50.812;7.132;2023-01-20T02:46:15;4.20;72.60
4107;DHT22;21906;50.812;7.132;2023-01-20T02:48:52;4.20;72.60
4107;DHT22;21906;50.812;7.132;2023-01-20T02:51:27;4.20;72.50
4107;DHT22;21906;50.812;7.132;2023-01-20T02:53:59;4.20;72.40
4107;DHT22;21906;50.812;7.132;2023-01-20T02:56:28;4.30;72.50
4107;DHT22;21906;50.812;7.132;2023-01-20T03:01:25;4.30;72.10
4107;DHT22;21906;50.812;7.132;2023-01-20T03:03:58;4.30;72.10
4107;DHT22;21906;50.812;7.132;2023-01-20T03:06:27;4.40;71.70
4107;DHT22;21906;50.812;7.132;2023-01-20T03:08:56;4.40;71.60
4107;DHT22;21906;50.812;7.132;2023-01-20T03:11:22;4.40;71.70
4107;DHT22;21906;50.812;7.132;2023-01-20T03:13:59;4.40;71.50
4107;DHT22;21906;50.812;7.132;2023-01-20T03:16:26;4.40;71.30
4107;DHT22;21906;50.812;7.132;2023-01-20T03:18:53;4.40;71.40
4107;DHT22;21906;50.812;7.132;2023-01-20T03:21:20;4.40;71.50
4107;DHT22;21906;50.812;7.132;2023-01-20T03:23:49;4.50;71.30
4107;DHT22;21906;50.812;7.132;2023-01-20T03:26:17;4.50;71.20
4107;DHT22;21906;50.812;7.132;2023-01-20T03:28:43;4.50;71.00
4107;DHT22;21906;50.812;7.132;2023-01-20T03:31:26;4.50;70.70
4107;DHT22;21906;50.812;7.132;2023-01-20T03:33:56;4.50;70.60
4107;DHT22;21906;50.812;7.132;2023-01-20T03:36:24;4.50;70.50
4107;DHT22;21906;50.812;7.132;2023-01-20T03:38:52;4.50;70.60
4107;DHT22;21906;50.812;7.132;2023-01-20T03:44:11;4.60;70.60
4107;DHT22;21906;50.812;7.132;2023-01-20T03:46:51;4.50;70.60
4107;DHT22;21906;50.812;7.132;2023-01-20T03:52:02;4.50;71.00
4107;DHT22;21906;50.812;7.132;2023-01-20T03:54:59;4.50;71.20
4107;DHT22;21906;50.812;7.132;2023-01-20T03:57:51;4.50;71.10
4107;DHT22;21906;50.812;7.132;2023-01-20T04:00:20;4.50;71.20
4107;DHT22;21906;50.812;7.132;2023-01-20T04:02:48;4.40;71.20
4107;DHT22;21906;50.812;7.132;2023-01-20T04:05:15;4.40;71.30
4107;DHT22;21906;50.812;7.132;2023-01-20T04:07:42;4.40;71.40
4107;DHT22;21906;50.812;7.132;2023-01-20T04:10:13;4.40;71.30
4107;DHT22;21906;50.812;7.132;2023-01-20T04:12:40;4.30;71.30
4107;DHT22;21906;50.812;7.132;2023-01-20T04:15:07;4.30;71.20
4107;DHT22;21906;50.812;7.132;2023-01-20T04:17:33;4.20;71.30
4107;DHT22;21906;50.812;7.132;2023-01-20T04:20:04;4.30;71.40
4107;DHT22;21906;50.812;7.132;2023-01-20T04:22:38;4.20;71.30
4107;DHT22;21906;50.812;7.132;2023-01-20T04:25:23;4.20;71.20
4107;DHT22;21906;50.812;7.132;2023-01-20T04:27:49;4.20;71.00
4107;DHT22;21906;50.812;7.132;2023-01-20T04:30:14;4.20;71.00
4107;DHT22;21906;50.812;7.132;2023-01-20T04:32:40;4.20;71.00
4107;DHT22;21906;50.812;7.132;2023-01-20T04:35:06;4.20;70.90
4107;DHT22;21906;50.812;7.132;2023-01-20T04:37:32;4.10;70.90
4107;DHT22;21906;50.812;7.132;2023-01-20T04:39:57;4.10;71.00
4107;DHT22;21906;50.812;7.132;2023-01-20T04:42:23;4.10;71.00
4107;DHT22;21906;50.812;7.132;2023-01-20T04:44:48;4.10;71.10
4107;DHT22;21906;50.812;7.132;2023-01-20T04:47:14;4.10;71.00
4107;DHT22;21906;50.812;7.132;2023-01-20T04:49:40;4.10;71.10
4107;DHT22;21906;50.812;7.132;2023-01-20T04:52:05;4.10;71.10
4107;DHT22;21906;50.812;7.132;2023-01-20T04:54:31;4.10;71.20
4107;DHT22;21906;50.812;7.132;2023-01-20T04:56:57;4.10;71.30
4107;DHT22;21906;50.812;7.132;2023-01-20T04:59:22;4.10;71.20
4107;DHT22;21906;50.812;7.132;2023-01-20T05:01:48;4.10;71.20
4107;DHT22;21906;50.812;7.132;2023-01-20T05:04:14;4.10;71.20
4107;DHT22;21906;50.812;7.132;2023-01-20T05:06:39;4.10;70.90
4107;DHT22;21906;50.812;7.132;2023-01-20T05:09:13;4.10;71.10
4107;DHT22;21906;50.812;7.132;2023-01-20T05:11:40;4.00;71.00
4107;DHT22;21906;50.812;7.132;2023-01-20T05:14:06;4.00;71.10
4107;DHT22;21906;50.812;7.132;2023-01-20T05:16:32;4.10;70.80
4107;DHT22;21906;50.812;7.132;2023-01-20T05:18:59;4.00;70.80
4107;DHT22;21906;50.812;7.132;2023-01-20T05:21:24;4.00;70.80
4107;DHT22;21906;50.812;7.132;2023-01-20T05:23:53;4.00;70.80
4107;DHT22;21906;50.812;7.132;2023-01-20T05:26:19;4.00;70.60
4107;DHT22;21906;50.812;7.132;2023-01-20T05:28:45;4.00;70.60
4107;DHT22;21906;50.812;7.132;2023-01-20T05:31:11;4.00;70.70
4107;DHT22;21906;50.812;7.132;2023-01-20T05:33:36;4.00;70.60
4107;DHT22;21906;50.812;7.132;2023-01-20T05:36:08;4.00;70.60
4107;DHT22;21906;50.812;7.132;2023-01-20T05:38:34;4.00;70.50
4107;DHT22;21906;50.812;7.132;2023-01-20T05:41:01;4.00;70.20
4107;DHT22;21906;50.812;7.132;2023-01-20T05:43:27;4.00;69.80
4107;DHT22;21906;50.812;7.132;2023-01-20T05:45:53;4.10;69.80
4107;DHT22;21906;50.812;7.132;2023-01-20T05:48:19;4.10;69.80
4107;DHT22;21906;50.812;7.132;2023-01-20T05:51:00;4.10;69.90
4107;DHT22;21906;50.812;7.132;2023-01-20T05:53:26;4.10;69.40
4107;DHT22;21906;50.812;7.132;2023-01-20T05:55:59;4.10;69.50
4107;DHT22;21906;50.812;7.132;2023-01-20T05:58:25;4.00;69.60
4107;DHT22;21906;50.812;7.132;2023-01-20T06:00:50;3.90;69.80
4107;DHT22;21906;50.812;7.132;2023-01-20T06:03:16;4.00;69.60
4107;DHT22;21906;50.812;7.132;2023-01-20T06:05:42;4.00;69.80
4107;DHT22;21906;50.812;7.132;2023-01-20T06:08:07;4.00;69.60
4107;DHT22;21906;50.812;7.132;2023-01-20T06:10:33;4.00;69.70
4107;DHT22;21906;50.812;7.132;2023-01-20T06:12:59;4.00;69.70
4107;DHT22;21906;50.812;7.132;2023-01-20T06:15:24;4.00;69.40
4107;DHT22;21906;50.812;7.132;2023-01-20T06:17:51;4.10;69.30
4107;DHT22;21906;50.812;7.132;2023-01-20T06:20:17;4.10;69.40
4107;DHT22;21906;50.812;7.132;2023-01-20T06:22:43;4.00;69.30
4107;DHT22;21906;50.812;7.132;2023-01-20T06:25:08;4.10;69.20
4107;DHT22;21906;50.812;7.132;2023-01-20T06:27:35;4.10;69.30
4107;DHT22;21906;50.812;7.132;2023-01-20T06:30:02;4.10;69.30
4107;DHT22;21906;50.812;7.132;2023-01-20T06:32:28;4.10;69.20
4107;DHT22;21906;50.812;7.132;2023-01-20T06:34:54;4.10;68.80
4107;DHT22;21906;50.812;7.132;2023-01-20T06:37:19;4.10;68.80
4107;DHT22;21906;50.812;7.132;2023-01-20T06:39:45;4.10;68.70
4107;DHT22;21906;50.812;7.132;2023-01-20T06:42:11;4.20;68.70
4107;DHT22;21906;50.812;7.132;2023-01-20T06:44:36;4.10;68.60
4107;DHT22;21906;50.812;7.132;2023-01-20T06:47:02;4.10;68.50
4107;DHT22;21906;50.812;7.132;2023-01-20T06:49:28;4.10;68.50
4107;DHT22;21906;50.812;7.132;2023-01-20T06:51:54;4.20;68.20
4107;DHT22;21906;50.812;7.132;2023-01-20T06:54:20;4.10;68.50
4107;DHT22;21906;50.812;7.132;2023-01-20T06:56:46;4.20;68.60
4107;DHT22;21906;50.812;7.132;2023-01-20T06:59:12;4.10;68.60
4107;DHT22;21906;50.812;7.132;2023-01-20T07:01:38;4.10;68.50
4107;DHT22;21906;50.812;7.132;2023-01-20T07:04:04;4.10;68.60
4107;DHT22;21906;50.812;7.132;2023-01-20T07:06:35;4.10;68.70
4107;DHT22;21906;50.812;7.132;2023-01-20T07:09:05;4.10;68.80
4107;DHT22;21906;50.812;7.132;2023-01-20T07:11:31;4.10;68.60
4107;DHT22;21906;50.812;7.132;2023-01-20T07:13:57;4.10;68.40
4107;DHT22;21906;50.812;7.132;2023-01-20T07:16:23;4.00;68.50
4107;DHT22;21906;50.812;7.132;2023-01-20T07:18:50;4.10;68.50
4107;DHT22;21906;50.812;7.132;2023-01-20T07:21:17;4.10;68.40
4107;DHT22;21906;50.812;7.132;2023-01-20T07:23:43;4.10;68.50
4107;DHT22;21906;50.812;7.132;2023-01-20T07:26:16;4.10;68.30
4107;DHT22;21906;50.812;7.132;2023-01-20T07:28:42;4.00;68.30
4107;DHT22;21906;50.812;7.132;2023-01-20T07:31:13;4.00;68.30
4107;DHT22;21906;50.812;7.132;2023-01-20T07:33:39;4.00;68.70
4107;DHT22;21906;50.812;7.132;2023-01-20T07:36:06;4.00;68.90
4107;DHT22;21906;50.812;7.132;2023-01-20T07:38:33;4.10;68.90
4107;DHT22;21906;50.812;7.132;2023-01-20T07:41:00;4.10;68.90
4107;DHT22;21906;50.812;7.132;2023-01-20T07:43:26;4.10;68.90
4107;DHT22;21906;50.812;7.132;2023-01-20T07:45:56;4.10;69.00
4107;DHT22;21906;50.812;7.132;2023-01-20T07:48:22;4.10;68.80
4107;DHT22;21906;50.812;7.132;2023-01-20T07:50:57;4.10;68.70
4107;DHT22;21906;50.812;7.132;2023-01-20T07:53:46;4.10;68.80
4107;DHT22;21906;50.812;7.132;2023-01-20T07:56:18;4.10;68.70
4107;DHT22;21906;50.812;7.132;2023-01-20T07:58:44;4.20;68.40
4107;DHT22;21906;50.812;7.132;2023-01-20T08:01:16;4.20;68.50
4107;DHT22;21906;50.812;7.132;2023-01-20T08:03:43;4.20;68.30
4107;DHT22;21906;50.812;7.132;2023-01-20T08:06:10;4.30;68.30
4107;DHT22;21906;50.812;7.132;2023-01-20T08:08:37;4.30;68.20
4107;DHT22;21906;50.812;7.132;2023-01-20T08:11:04;4.40;68.00
4107;DHT22;21906;50.812;7.132;2023-01-20T08:13:31;4.30;67.80
4107;DHT22;21906;50.812;7.132;2023-01-20T08:16:01;4.40;67.80
4107;DHT22;21906;50.812;7.132;2023-01-20T08:18:28;4.40;67.70
4107;DHT22;21906;50.812;7.132;2023-01-20T08:20:54;4.40;67.50
4107;DHT22;21906;50.812;7.132;2023-01-20T08:23:19;4.40;67.50
4107;DHT22;21906;50.812;7.132;2023-01-20T08:25:45;4.50;67.40
4107;DHT22;21906;50.812;7.132;2023-01-20T08:28:11;4.50;67.50
4107;DHT22;21906;50.812;7.132;2023-01-20T08:30:37;4.40;67.60
4107;DHT22;21906;50.812;7.132;2023-01-20T08:33:03;4.50;67.60
4107;DHT22;21906;50.812;7.132;2023-01-20T08:35:28;4.50;67.70
4107;DHT22;21906;50.812;7.132;2023-01-20T08:37:54;4.50;67.50
4107;DHT22;21906;50.812;7.132;2023-01-20T08:40:20;4.50;67.10
4107;DHT22;21906;50.812;7.132;2023-01-20T08:42:45;4.40;67.30
4107;DHT22;21906;50.812;7.132;2023-01-20T08:45:12;4.40;67.30
4107;DHT22;21906;50.812;7.132;2023-01-20T08:47:39;4.40;67.20
4107;DHT22;21906;50.812;7.132;2023-01-20T08:50:09;4.40;67.60
4107;DHT22;21906;50.812;7.132;2023-01-20T08:52:35;4.30;68.60
4107;DHT22;21906;50.812;7.132;2023-01-20T08:55:01;4.40;68.40
4107;DHT22;21906;50.812;7.132;2023-01-20T08:57:27;4.50;68.10
4107;DHT22;21906;50.812;7.132;2023-01-20T08:59:54;4.50;67.80
4107;DHT22;21906;50.812;7.132;2023-01-20T09:02:20;4.60;67.70
4107;DHT22;21906;50.812;7.132;2023-01-20T09:04:47;4.60;67.90
4107;DHT22;21906;50.812;7.132;2023-01-20T09:07:16;4.60;67.10
4107;DHT22;21906;50.812;7.132;2023-01-20T09:09:42;4.70;67.10
4107;DHT22;21906;50.812;7.132;2023-01-20T09:12:08;4.80;66.80
4107;DHT22;21906;50.812;7.132;2023-01-20T09:14:33;4.80;66.30
4107;DHT22;21906;50.812;7.132;2023-01-20T09:16:59;4.90;66.00
4107;DHT22;21906;50.812;7.132;2023-01-20T09:19:27;4.90;65.80
4107;DHT22;21906;50.812;7.132;2023-01-20T09:21:53;4.80;66.00
4107;DHT22;21906;50.812;7.132;2023-01-20T09:24:19;4.90;66.10
4107;DHT22;21906;50.812;7.132;2023-01-20T09:26:46;4.90;66.00
4107;DHT22;21906;50.812;7.132;2023-01-20T09:29:18;4.90;65.70
4107;DHT22;21906;50.812;7.132;2023-01-20T09:31:54;5.00;65.50
4107;DHT22;21906;50.812;7.132;2023-01-20T09:34:25;5.10;64.70
4107;DHT22;21906;50.812;7.132;2023-01-20T09:36:56;5.20;64.80
4107;DHT22;21906;50.812;7.132;2023-01-20T09:39:23;5.20;64.60
4107;DHT22;21906;50.812;7.132;2023-01-20T09:45:25;5.20;63.60
4107;DHT22;21906;50.812;7.132;2023-01-20T09:48:41;5.30;63.50
4107;DHT22;21906;50.812;7.132;2023-01-20T09:51:12;5.40;63.20
4107;DHT22;21906;50.812;7.132;2023-01-20T09:54:04;5.40;63.50
4107;DHT22;21906;50.812;7.132;2023-01-20T09:56:36;5.60;62.80
4107;DHT22;21906;50.812;7.132;2023-01-20T09:59:11;5.60;63.00
4107;DHT22;21906;50.812;7.132;2023-01-20T10:01:48;5.60;63.10
4107;DHT22;21906;50.812;7.132;2023-01-20T10:04:32;5.70;63.30
4107;DHT22;21906;50.812;7.132;2023-01-20T10:07:16;5.80;63.20
4107;DHT22;21906;50.812;7.132;2023-01-20T10:10:23;5.80;63.40
4107;DHT22;21906;50.812;7.132;2023-01-20T10:12:54;5.90;62.90
4107;DHT22;21906;50.812;7.132;2023-01-20T10:15:26;5.90;63.30
4107;DHT22;21906;50.812;7.132;2023-01-20T10:18:06;5.90;62.40
4107;DHT22;21906;50.812;7.132;2023-01-20T10:26:20;6.00;62.00
4107;DHT22;21906;50.812;7.132;2023-01-20T10:28:58;5.90;62.40
4107;DHT22;21906;50.812;7.132;2023-01-20T10:31:27;6.00;61.30
4107;DHT22;21906;50.812;7.132;2023-01-20T10:34:03;6.00;61.70
4107;DHT22;21906;50.812;7.132;2023-01-20T10:36:30;6.00;61.90
4107;DHT22;21906;50.812;7.132;2023-01-20T10:39:18;6.00;62.00
4107;DHT22;21906;50.812;7.132;2023-01-20T10:41:56;6.00;61.40
4107;DHT22;21906;50.812;7.132;2023-01-20T10:44:26;6.10;61.60
4107;DHT22;21906;50.812;7.132;2023-01-20T10:54:53;6.30;61.00
4107;DHT22;21906;50.812;7.132;2023-01-20T10:57:21;6.40;61.10
4107;DHT22;21906;50.812;7.132;2023-01-20T10:59:50;6.50;60.40
4107;DHT22;21906;50.812;7.132;2023-01-20T11:02:24;6.50;60.80
4107;DHT22;21906;50.812;7.132;2023-01-20T11:05:20;6.60;60.80
4107;DHT22;21906;50.812;7.132;2023-01-20T11:07:48;6.60;60.80
4107;DHT22;21906;50.812;7.132;2023-01-20T11:10:22;6.60;60.60
4107;DHT22;21906;50.812;7.132;2023-01-20T11:13:00;6.60;60.10
4107;DHT22;21906;50.812;7.132;2023-01-20T11:15:32;6.40;60.60
4107;DHT22;21906;50.812;7.132;2023-01-20T11:20:52;6.40;60.70
4107;DHT22;21906;50.812;7.132;2023-01-20T11:23:52;6.20;61.00
4107;DHT22;21906;50.812;7.132;2023-01-20T11:26:30;6.20;61.10
4107;DHT22;21906;50.812;7.132;2023-01-20T11:34:24;6.20;60.90
4107;DHT22;21906;50.812;7.132;2023-01-20T11:37:20;6.20;60.80
4107;DHT22;21906;50.812;7.132;2023-01-20T11:44:51;6.10;61.10
4107;DHT22;21906;50.812;7.132;2023-01-20T11:47:32;6.10;61.20
4107;DHT22;21906;50.812;7.132;2023-01-20T11:52:41;5.90;61.70
4107;DHT22;21906;50.812;7.132;2023-01-20T11:55:17;5.90;61.40
4107;DHT22;21906;50.812;7.132;2023-01-20T12:05:50;6.10;61.00
4107;DHT22;21906;50.812;7.132;2023-01-20T12:08:49;6.10;60.70
4107;DHT22;21906;50.812;7.132;2023-01-20T12:11:19;6.10;60.40
4107;DHT22;21906;50.812;7.132;2023-01-20T12:16:40;6.10;60.70
4107;DHT22;21906;50.812;7.132;2023-01-20T12:19:14;6.00;61.00
4107;DHT22;21906;50.812;7.132;2023-01-20T12:21:46;5.90;61.10
4107;DHT22;21906;50.812;7.132;2023-01-20T12:24:51;6.00;61.50
4107;DHT22;21906;50.812;7.132;2023-01-20T12:30:43;6.10;61.10
4107;DHT22;21906;50.812;7.132;2023-01-20T12:33:21;6.00;61.00
4107;DHT22;21906;50.812;7.132;2023-01-20T12:50:03;6.20;60.70
4107;DHT22;21906;50.812;7.132;2023-01-20T13:06:39;6.00;63.20
4107;DHT22;21906;50.812;7.132;2023-01-20T13:17:53;5.70;66.90
4107;DHT22;21906;50.812;7.132;2023-01-20T13:20:25;5.70;67.70
4107;DHT22;21906;50.812;7.132;2023-01-20T13:22:52;5.70;68.20
4107;DHT22;21906;50.812;7.132;2023-01-20T13:25:19;5.60;68.50
4107;DHT22;21906;50.812;7.132;2023-01-20T13:27:47;5.60;68.60
4107;DHT22;21906;50.812;7.132;2023-01-20T13:35:59;5.40;69.80
4107;DHT22;21906;50.812;7.132;2023-01-20T13:38:30;5.40;70.10
4107;DHT22;21906;50.812;7.132;2023-01-20T13:41:01;5.40;70.30
4107;DHT22;21906;50.812;7.132;2023-01-20T13:43:35;5.40;70.40
4107;DHT22;21906;50.812;7.132;2023-01-20T13:48:32;5.30;70.80
4107;DHT22;21906;50.812;7.132;2023-01-20T13:51:40;5.20;71.00
4107;DHT22;21906;50.812;7.132;2023-01-20T13:59:54;5.00;72.00
4107;DHT22;21906;50.812;7.132;2023-01-20T14:02:23;4.90;72.00
4107;DHT22;21906;50.812;7.132;2023-01-20T14:04:49;4.90;72.40
4107;DHT22;21906;50.812;7.132;2023-01-20T14:07:28;4.90;72.40
4107;DHT22;21906;50.812;7.132;2023-01-20T14:09:56;4.90;72.60
4107;DHT22;21906;50.812;7.132;2023-01-20T14:12:22;4.90;72.40
4107;DHT22;21906;50.812;7.132;2023-01-20T14:14:48;4.90;72.30
4107;DHT22;21906;50.812;7.132;2023-01-20T14:17:19;4.90;72.60
4107;DHT22;21906;50.812;7.132;2023-01-20T14:19:52;4.90;72.70
4107;DHT22;21906;50.812;7.132;2023-01-20T14:22:22;4.80;72.90
4107;DHT22;21906;50.812;7.132;2023-01-20T14:24:49;4.70;73.30
4107;DHT22;21906;50.812;7.132;2023-01-20T14:27:30;4.60;73.80
4107;DHT22;21906;50.812;7.132;2023-01-20T14:30:14;4.60;73.70
4107;DHT22;21906;50.812;7.132;2023-01-20T14:32:40;4.60;73.90
4107;DHT22;21906;50.812;7.132;2023-01-20T14:35:17;4.60;74.00
4107;DHT22;21906;50.812;7.132;2023-01-20T14:37:49;4.50;74.00
4107;DHT22;21906;50.812;7.132;2023-01-20T14:43:13;4.60;74.30
4107;DHT22;21906;50.812;7.132;2023-01-20T14:45:44;4.40;74.80
4107;DHT22;21906;50.812;7.132;2023-01-20T14:48:11;4.40;75.10
4107;DHT22;21906;50.812;7.132;2023-01-20T14:50:38;4.20;76.30
4107;DHT22;21906;50.812;7.132;2023-01-20T14:53:04;4.10;77.00
4107;DHT22;21906;50.812;7.132;2023-01-20T14:55:34;4.20;77.20
4107;DHT22;21906;50.812;7.132;2023-01-20T14:58:07;4.40;76.70
4107;DHT22;21906;50.812;7.132;2023-01-20T15:00:33;4.50;76.60
4107;DHT22;21906;50.812;7.132;2023-01-20T15:03:13;4.50;76.40
4107;DHT22;21906;50.812;7.132;2023-01-20T15:05:55;4.50;76.40
4107;DHT22;21906;50.812;7.132;2023-01-20T15:08:44;4.50;76.30
4107;DHT22;21906;50.812;7.132;2023-01-20T15:16:29;4.40;76.10
4107;DHT22;21906;50.812;7.132;2023-01-20T15:21:44;4.40;75.60
4107;DHT22;21906;50.812;7.132;2023-01-20T15:24:23;4.50;75.40
4107;DHT22;21906;50.812;7.132;2023-01-20T15:26:53;4.50;75.10
4107;DHT22;21906;50.812;7.132;2023-01-20T15:29:33;4.50;75.10
4107;DHT22;21906;50.812;7.132;2023-01-20T15:32:02;4.40;75.70
4107;DHT22;21906;50.812;7.132;2023-01-20T15:34:33;4.50;75.40
4107;DHT22;21906;50.812;7.132;2023-01-20T15:36:59;4.50;75.30
4107;DHT22;21906;50.812;7.132;2023-01-20T15:39:26;4.40;75.60
4107;DHT22;21906;50.812;7.132;2023-01-20T15:41:54;4.30;75.80
4107;DHT22;21906;50.812;7.132;2023-01-20T15:44:22;4.30;75.80
4107;DHT22;21906;50.812;7.132;2023-01-20T15:46:51;4.20;75.90
4107;DHT22;21906;50.812;7.132;2023-01-20T15:49:18;4.10;75.80
4107;DHT22;21906;50.812;7.132;2023-01-20T15:51:44;4.10;76.30
4107;DHT22;21906;50.812;7.132;2023-01-20T15:54:10;4.10;76.30
4107;DHT22;21906;50.812;7.132;2023-01-20T15:56:40;4.10;76.30
4107;DHT22;21906;50.812;7.132;2023-01-20T15:59:15;4.10;76.20
4107;DHT22;21906;50.812;7.132;2023-01-20T16:01:42;3.90;76.40
4107;DHT22;21906;50.812;7.132;2023-01-20T16:04:14;3.80;77.20
4107;DHT22;21906;50.812;7.132;2023-01-20T16:06:44;3.70;77.20
4107;DHT22;21906;50.812;7.132;2023-01-20T16:09:26;3.80;77.30
4107;DHT22;21906;50.812;7.132;2023-01-20T16:11:55;3.60;77.30
4107;DHT22;21906;50.812;7.132;2023-01-20T16:14:21;3.50;77.50
4107;DHT22;21906;50.812;7.132;2023-01-20T16:16:50;3.50;77.40
4107;DHT22;21906;50.812;7.132;2023-01-20T16:19:19;3.40;77.80
4107;DHT22;21906;50.812;7.132;2023-01-20T16:21:45;3.50;77.50
4107;DHT22;21906;50.812;7.132;2023-01-20T16:24:10;3.50;77.70
4107;DHT22;21906;50.812;7.132;2023-01-20T16:26:36;3.40;77.90
4107;DHT22;21906;50.812;7.132;2023-01-20T16:29:02;3.40;78.10
4107;DHT22;21906;50.812;7.132;2023-01-20T16:31:29;3.40;78.20
4107;DHT22;21906;50.812;7.132;2023-01-20T16:33:55;3.40;78.40
4107;DHT22;21906;50.812;7.132;2023-01-20T16:36:22;3.40;78.00
4107;DHT22;21906;50.812;7.132;2023-01-20T16:38:49;3.20;78.60
4107;DHT22;21906;50.812;7.132;2023-01-20T16:41:23;3.30;78.30
4107;DHT22;21906;50.812;7.132;2023-01-20T16:43:50;3.20;78.30
4107;DHT22;21906;50.812;7.132;2023-01-20T16:46:24;3.30;78.20
4107;DHT22;21906;50.812;7.132;2023-01-20T16:48:51;3.20;78.20
4107;DHT22;21906;50.812;7.132;2023-01-20T16:51:21;3.30;77.90
4107;DHT22;21906;50.812;7.132;2023-01-20T16:53:47;3.40;77.70
4107;DHT22;21906;50.812;7.132;2023-01-20T16:58:39;3.30;77.90
4107;DHT22;21906;50.812;7.132;2023-01-20T17:01:05;3.40;77.90
4107;DHT22;21906;50.812;7.132;2023-01-20T17:03:38;3.40;78.40
4107;DHT22;21906;50.812;7.132;2023-01-20T17:06:10;3.40;78.60
4107;DHT22;21906;50.812;7.132;2023-01-20T17:08:36;3.50;78.20
4107;DHT22;21906;50.812;7.132;2023-01-20T17:11:02;3.60;78.00
4107;DHT22;21906;50.812;7.132;2023-01-20T17:13:27;3.60;77.80
4107;DHT22;21906;50.812;7.132;2023-01-20T17:15:53;3.70;77.90
4107;DHT22;21906;50.812;7.132;2023-01-20T17:18:19;3.80;77.50
4107;DHT22;21906;50.812;7.132;2023-01-20T17:20:44;3.60;76.70
4107;DHT22;21906;50.812;7.132;2023-01-20T17:23:10;3.70;77.40
4107;DHT22;21906;50.812;7.132;2023-01-20T17:25:36;3.70;76.90
4107;DHT22;21906;50.812;7.132;2023-01-20T17:28:01;3.70;76.70
4107;DHT22;21906;50.812;7.132;2023-01-20T17:30:27;3.70;76.30
4107;DHT22;21906;50.812;7.132;2023-01-20T17:32:53;3.70;75.70
4107;DHT22;21906;50.812;7.132;2023-01-20T17:35:18;3.70;76.00
4107;DHT22;21906;50.812;7.132;2023-01-20T17:37:44;3.90;75.70
4107;DHT22;21906;50.812;7.132;2023-01-20T17:40:11;3.90;75.30
4107;DHT22;21906;50.812;7.132;2023-01-20T17:42:37;3.90;75.00
4107;DHT22;21906;50.812;7.132;2023-01-20T17:45:03;3.70;75.30
4107;DHT22;21906;50.812;7.132;2023-01-20T17:47:29;3.60;75.80
4107;DHT22;21906;50.812;7.132;2023-01-20T17:49:54;3.40;76.00
4107;DHT22;21906;50.812;7.132;2023-01-20T17:52:20;3.40;76.80
4107;DHT22;21906;50.812;7.132;2023-01-20T17:54:47;3.40;76.80
4107;DHT22;21906;50.812;7.132;2023-01-20T17:57:13;3.30;77.10
4107;DHT22;21906;50.812;7.132;2023-01-20T17:59:39;3.30;77.20
4107;DHT22;21906;50.812;7.132;2023-01-20T18:02:05;3.40;76.80
4107;DHT22;21906;50.812;7.132;2023-01-20T18:04:31;3.50;76.60
4107;DHT22;21906;50.812;7.132;2023-01-20T18:06:57;3.40;76.60
4107;DHT22;21906;50.812;7.132;2023-01-20T18:09:24;3.50;76.40
4107;DHT22;21906;50.812;7.132;2023-01-20T18:11:50;3.40;76.50
4107;DHT22;21906;50.812;7.132;2023-01-20T18:14:16;3.50;76.50
4107;DHT22;21906;50.812;7.132;2023-01-20T18:16:41;3.60;76.10
4107;DHT22;21906;50.812;7.132;2023-01-20T18:19:10;3.70;75.90
4107;DHT22;21906;50.812;7.132;2023-01-20T18:21:36;3.70;75.30
4107;DHT22;21906;50.812;7.132;2023-01-20T18:24:04;3.70;75.50
4107;DHT22;21906;50.812;7.132;2023-01-20T18:26:33;3.60;75.90
4107;DHT22;21906;50.812;7.132;2023-01-20T18:29:01;3.60;76.00
4107;DHT22;21906;50.812;7.132;2023-01-20T18:31:28;3.60;75.80